sensor_id;sensor_type;location;lat;lon;timestamp;pressure;altitude;pressure_sealevel;temperature;humidity
51289;BME280;37372;52.294;5.152;2023-05-14T00:01:25;102108.06;;;12.54;84.29
51289;BME280;37372;52.294;5.152;2023-05-14T00:03:59;102108.91;;;12.55;84.76
51289;BME280;37372;52.294;5.152;2023-05-14T00:06:25;102101.31;;;12.50;84.82
51289;BME280;37372;52.294;5.152;2023-05-14T00:09:01;102101.50;;;12.48;85.07
51289;BME280;37372;52.294;5.152;2023-05-14T00:11:26;102094.75;;;12.44;84.39
51289;BME280;37372;52.294;5.152;2023-05-14T00:14:01;102085.00;;;12.42;84.66
51289;BME280;37372;52.294;5.152;2023-05-14T00:16:28;102078.88;;;12.40;84.52
51289;BME280;37372;52.294;5.152;2023-05-14T00:19:00;102081.00;;;12.38;85.09
51289;BME280;37372;52.294;5.152;2023-05-14T00:21:50;102076.13;;;12.33;84.68
51289;BME280;37372;52.294;5.152;2023-05-14T00:24:17;102075.06;;;12.28;85.05
51289;BME280;37372;52.294;5.152;2023-05-14T00:26:44;102068.50;;;12.29;84.76
51289;BME280;37372;52.294;5.152;2023-05-14T00:29:10;102063.00;;;12.29;85.28
51289;BME280;37372;52.294;5.152;2023-05-14T00:31:37;102065.13;;;12.27;85.71
51289;BME280;37372;52.294;5.152;2023-05-14T00:34:08;102067.03;;;12.26;85.70
51289;BME280;37372;52.294;5.152;2023-05-14T00:36:35;102060.91;;;12.24;85.04
51289;BME280;37372;52.294;5.152;2023-05-14T00:39:09;102058.56;;;12.28;86.15
51289;BME280;37372;52.294;5.152;2023-05-14T00:41:36;102052.81;;;12.23;85.54
51289;BME280;37372;52.294;5.152;2023-05-14T00:44:07;102050.53;;;12.19;86.41
51289;BME280;37372;52.294;5.152;2023-05-14T00:46:32;102043.94;;;12.27;85.98
51289;BME280;37372;52.294;5.152;2023-05-14T00:49:08;102040.78;;;12.24;86.81
51289;BME280;37372;52.294;5.152;2023-05-14T00:51:36;102044.78;;;12.21;87.36
51289;BME280;37372;52.294;5.152;2023-05-14T00:54:07;102037.59;;;12.20;86.65
51289;BME280;37372;52.294;5.152;2023-05-14T00:56:33;102046.25;;;12.17;87.43
51289;BME280;37372;52.294;5.152;2023-05-14T00:59:10;102040.75;;;12.17;87.07
51289;BME280;37372;52.294;5.152;2023-05-14T01:01:37;102045.63;;;12.15;87.71
51289;BME280;37372;52.294;5.152;2023-05-14T01:04:15;102048.41;;;12.15;87.62
51289;BME280;37372;52.294;5.152;2023-05-14T01:09:47;102039.50;;;12.06;87.78
51289;BME280;37372;52.294;5.152;2023-05-14T01:12:39;102044.38;;;12.04;87.04
51289;BME280;37372;52.294;5.152;2023-05-14T01:15:30;102041.44;;;11.99;88.12
51289;BME280;37372;52.294;5.152;2023-05-14T01:18:03;102048.38;;;11.95;87.22
51289;BME280;37372;52.294;5.152;2023-05-14T01:20:32;102041.44;;;11.99;88.09
51289;BME280;37372;52.294;5.152;2023-05-14T01:22:59;102042.50;;;11.98;87.99
51289;BME280;37372;52.294;5.152;2023-05-14T01:25:25;102043.72;;;11.96;87.74
51289;BME280;37372;52.294;5.152;2023-05-14T01:27:59;102035.91;;;11.92;88.10
51289;BME280;37372;52.294;5.152;2023-05-14T01:30:30;102034.00;;;11.93;87.89
51289;BME280;37372;52.294;5.152;2023-05-14T01:33:01;102038.00;;;11.90;87.74
51289;BME280;37372;52.294;5.152;2023-05-14T01:35:29;102033.34;;;11.91;87.79
51289;BME280;37372;52.294;5.152;2023-05-14T01:37:57;102028.28;;;11.88;87.56
51289;BME280;37372;52.294;5.152;2023-05-14T01:40:24;102024.69;;;11.87;88.15
51289;BME280;37372;52.294;5.152;2023-05-14T01:42:54;102018.75;;;11.84;88.34
51289;BME280;37372;52.294;5.152;2023-05-14T01:45:22;102022.16;;;11.86;87.94
51289;BME280;37372;52.294;5.152;2023-05-14T01:47:48;102019.41;;;11.86;87.54
51289;BME280;37372;52.294;5.152;2023-05-14T01:50:15;102028.28;;;11.81;88.69
51289;BME280;37372;52.294;5.152;2023-05-14T01:52:41;102013.69;;;11.81;88.30
51289;BME280;37372;52.294;5.152;2023-05-14T01:55:08;102015.34;;;11.75;88.34
51289;BME280;37372;52.294;5.152;2023-05-14T01:57:33;102016.63;;;11.73;88.17
51289;BME280;37372;52.294;5.152;2023-05-14T02:00:00;102007.94;;;11.76;88.62
51289;BME280;37372;52.294;5.152;2023-05-14T02:02:26;102015.13;;;11.77;88.51
51289;BME280;37372;52.294;5.152;2023-05-14T02:04:52;102017.03;;;11.76;89.02
51289;BME280;37372;52.294;5.152;2023-05-14T02:07:17;102010.47;;;11.71;89.04
51289;BME280;37372;52.294;5.152;2023-05-14T02:09:43;102015.56;;;11.74;88.81
51289;BME280;37372;52.294;5.152;2023-05-14T02:12:08;102014.50;;;11.68;88.85
51289;BME280;37372;52.294;5.152;2023-05-14T02:14:36;102005.19;;;11.62;88.81
51289;BME280;37372;52.294;5.152;2023-05-14T02:17:03;102018.50;;;11.65;89.17
51289;BME280;37372;52.294;5.152;2023-05-14T02:19:30;102011.97;;;11.60;89.40
51289;BME280;37372;52.294;5.152;2023-05-14T02:21:55;102015.31;;;11.55;89.46
51289;BME280;37372;52.294;5.152;2023-05-14T02:24:28;102006.44;;;11.53;89.60
51289;BME280;37372;52.294;5.152;2023-05-14T02:26:53;102005.19;;;11.56;89.76
51289;BME280;37372;52.294;5.152;2023-05-14T02:29:29;102006.66;;;11.58;90.63
51289;BME280;37372;52.294;5.152;2023-05-14T02:31:54;102003.50;;;11.55;89.81
51289;BME280;37372;52.294;5.152;2023-05-14T02:34:34;101995.66;;;11.58;90.58
51289;BME280;37372;52.294;5.152;2023-05-14T02:37:02;101996.50;;;11.59;90.66
51289;BME280;37372;52.294;5.152;2023-05-14T02:39:31;101996.91;;;11.49;90.62
51289;BME280;37372;52.294;5.152;2023-05-14T02:41:56;102001.13;;;11.52;90.76
51289;BME280;37372;52.294;5.152;2023-05-14T02:44:41;101994.19;;;11.56;91.31
51289;BME280;37372;52.294;5.152;2023-05-14T02:47:06;101993.34;;;11.55;91.18
51289;BME280;37372;52.294;5.152;2023-05-14T02:49:31;101991.66;;;11.54;91.23
51289;BME280;37372;52.294;5.152;2023-05-14T02:51:57;101985.09;;;11.55;91.72
51289;BME280;37372;52.294;5.152;2023-05-14T02:54:39;101990.38;;;11.57;91.52
51289;BME280;37372;52.294;5.152;2023-05-14T02:57:06;101993.56;;;11.54;91.77
51289;BME280;37372;52.294;5.152;2023-05-14T02:59:33;101989.97;;;11.53;91.73
51289;BME280;37372;52.294;5.152;2023-05-14T03:02:04;101986.56;;;11.51;91.16
51289;BME280;37372;52.294;5.152;2023-05-14T03:04:39;101989.97;;;11.53;91.18
51289;BME280;37372;52.294;5.152;2023-05-14T03:07:06;101991.22;;;11.51;91.53
51289;BME280;37372;52.294;5.152;2023-05-14T03:09:40;101987.63;;;11.50;90.93
51289;BME280;37372;52.294;5.152;2023-05-14T03:12:07;101986.16;;;11.48;91.03
51289;BME280;37372;52.294;5.152;2023-05-14T03:14:42;101989.53;;;11.50;91.58
51289;BME280;37372;52.294;5.152;2023-05-14T03:17:08;101985.31;;;11.47;91.47
51289;BME280;37372;52.294;5.152;2023-05-14T03:19:39;101985.91;;;11.43;91.49
51289;BME280;37372;52.294;5.152;2023-05-14T03:22:05;101997.75;;;11.43;92.06
51289;BME280;37372;52.294;5.152;2023-05-14T03:24:45;101982.53;;;11.41;92.03
51289;BME280;37372;52.294;5.152;2023-05-14T03:27:11;101976.00;;;11.42;91.88
51289;BME280;37372;52.294;5.152;2023-05-14T03:29:43;101978.53;;;11.43;91.97
51289;BME280;37372;52.294;5.152;2023-05-14T03:32:08;101982.72;;;11.39;91.74
51289;BME280;37372;52.294;5.152;2023-05-14T03:34:40;101978.53;;;11.43;91.91
51289;BME280;37372;52.294;5.152;2023-05-14T03:37:06;101977.06;;;11.47;91.64
51289;BME280;37372;52.294;5.152;2023-05-14T03:39:43;101967.97;;;11.47;91.79
51289;BME280;37372;52.294;5.152;2023-05-14T03:42:08;101970.50;;;11.48;92.19
51289;BME280;37372;52.294;5.152;2023-05-14T03:44:44;101969.00;;;11.46;91.33
51289;BME280;37372;52.294;5.152;2023-05-14T03:47:09;101966.91;;;11.48;91.86
51289;BME280;37372;52.294;5.152;2023-05-14T03:49:46;101962.88;;;11.44;91.90
51289;BME280;37372;52.294;5.152;2023-05-14T03:52:12;101967.09;;;11.39;91.79
51289;BME280;37372;52.294;5.152;2023-05-14T03:54:47;101964.16;;;11.41;91.57
51289;BME280;37372;52.294;5.152;2023-05-14T03:57:13;101959.72;;;11.40;92.55
51289;BME280;37372;52.294;5.152;2023-05-14T03:59:46;101959.91;;;11.38;92.43
51289;BME280;37372;52.294;5.152;2023-05-14T04:02:12;101965.00;;;11.42;92.38
51289;BME280;37372;52.294;5.152;2023-05-14T04:04:44;101961.19;;;11.43;92.34
51289;BME280;37372;52.294;5.152;2023-05-14T04:07:09;101961.59;;;11.39;91.73
51289;BME280;37372;52.294;5.152;2023-05-14T04:09:53;101966.06;;;11.41;92.42
51289;BME280;37372;52.294;5.152;2023-05-14T04:12:18;101970.50;;;11.42;92.71
51289;BME280;37372;52.294;5.152;2023-05-14T04:14:52;101968.81;;;11.41;91.99
51289;BME280;37372;52.294;5.152;2023-05-14T04:17:20;101963.94;;;11.43;92.15
51289;BME280;37372;52.294;5.152;2023-05-14T04:19:57;101960.13;;;11.44;92.35
51289;BME280;37372;52.294;5.152;2023-05-14T04:22:22;101968.38;;;11.44;91.71
51289;BME280;37372;52.294;5.152;2023-05-14T04:24:54;101970.72;;;11.47;92.11
51289;BME280;37372;52.294;5.152;2023-05-14T04:27:20;101969.66;;;11.48;92.25
51289;BME280;37372;52.294;5.152;2023-05-14T04:29:51;101965.63;;;11.50;93.06
51289;BME280;37372;52.294;5.152;2023-05-14T04:32:16;101971.97;;;11.51;93.03
51289;BME280;37372;52.294;5.152;2023-05-14T04:34:48;101968.38;;;11.57;93.22
51289;BME280;37372;52.294;5.152;2023-05-14T04:37:14;101965.63;;;11.57;93.00
51289;BME280;37372;52.294;5.152;2023-05-14T04:39:54;101965.41;;;11.58;92.94
51289;BME280;37372;52.294;5.152;2023-05-14T04:42:19;101973.47;;;11.66;93.06
51289;BME280;37372;52.294;5.152;2023-05-14T04:44:53;101965.03;;;11.61;93.12
51289;BME280;37372;52.294;5.152;2023-05-14T04:47:21;101971.16;;;11.70;92.83
51289;BME280;37372;52.294;5.152;2023-05-14T04:49:55;101966.72;;;11.76;92.56
51289;BME280;37372;52.294;5.152;2023-05-14T04:52:22;101968.19;;;11.78;92.56
51289;BME280;37372;52.294;5.152;2023-05-14T04:55:01;101965.25;;;11.80;92.43
51289;BME280;37372;52.294;5.152;2023-05-14T04:57:26;101962.53;;;11.86;92.13
51289;BME280;37372;52.294;5.152;2023-05-14T05:00:00;101970.13;;;11.91;92.70
51289;BME280;37372;52.294;5.152;2023-05-14T05:02:25;101966.50;;;11.97;92.40
51289;BME280;37372;52.294;5.152;2023-05-14T05:04:59;101979.00;;;12.06;92.26
51289;BME280;37372;52.294;5.152;2023-05-14T05:07:24;101966.09;;;12.07;91.96
51289;BME280;37372;52.294;5.152;2023-05-14T05:10:00;101973.28;;;12.14;91.66
51289;BME280;37372;52.294;5.152;2023-05-14T05:12:32;101958.69;;;12.14;92.16
51289;BME280;37372;52.294;5.152;2023-05-14T05:15:00;101976.88;;;12.15;91.20
51289;BME280;37372;52.294;5.152;2023-05-14T05:17:28;101963.94;;;12.22;90.96
51289;BME280;37372;52.294;5.152;2023-05-14T05:19:59;101963.75;;;12.24;90.37
51289;BME280;37372;52.294;5.152;2023-05-14T05:22:30;101971.59;;;12.13;90.02
51289;BME280;37372;52.294;5.152;2023-05-14T05:25:03;101969.47;;;12.09;89.90
51289;BME280;37372;52.294;5.152;2023-05-14T05:27:33;101962.69;;;12.25;90.24
51289;BME280;37372;52.294;5.152;2023-05-14T05:30:07;101966.91;;;12.34;90.44
51289;BME280;37372;52.294;5.152;2023-05-14T05:32:35;101963.72;;;12.37;89.87
51289;BME280;37372;52.294;5.152;2023-05-14T05:35:12;101974.50;;;12.38;89.91
51289;BME280;37372;52.294;5.152;2023-05-14T05:37:38;101971.09;;;12.36;89.23
51289;BME280;37372;52.294;5.152;2023-05-14T05:40:06;101968.75;;;12.53;89.80
51289;BME280;37372;52.294;5.152;2023-05-14T05:42:32;101980.16;;;12.63;89.56
51289;BME280;37372;52.294;5.152;2023-05-14T05:45:10;101975.00;;;12.80;89.64
51289;BME280;37372;52.294;5.152;2023-05-14T05:47:37;101973.69;;;12.96;88.63
51289;BME280;37372;52.294;5.152;2023-05-14T05:50:10;101984.44;;;13.04;88.91
51289;BME280;37372;52.294;5.152;2023-05-14T05:52:36;101977.63;;;13.07;88.21
51289;BME280;37372;52.294;5.152;2023-05-14T05:55:11;101987.53;;;12.76;89.13
51289;BME280;37372;52.294;5.152;2023-05-14T05:57:36;101980.09;;;12.83;89.37
51289;BME280;37372;52.294;5.152;2023-05-14T06:00:10;101984.06;;;12.87;89.32
51289;BME280;37372;52.294;5.152;2023-05-14T06:02:42;101988.16;;;12.78;88.32
51289;BME280;37372;52.294;5.152;2023-05-14T06:05:14;101984.75;;;12.83;88.60
51289;BME280;37372;52.294;5.152;2023-05-14T06:07:39;101983.25;;;12.80;88.48
51289;BME280;37372;52.294;5.152;2023-05-14T06:10:14;101975.44;;;12.84;89.15
51289;BME280;37372;52.294;5.152;2023-05-14T06:12:39;101986.84;;;12.87;89.43
51289;BME280;37372;52.294;5.152;2023-05-14T06:15:15;101985.75;;;12.95;87.58
51289;BME280;37372;52.294;5.152;2023-05-14T06:17:43;101991.03;;;13.03;88.16
51289;BME280;37372;52.294;5.152;2023-05-14T06:20:16;101984.22;;;13.06;86.97
51289;BME280;37372;52.294;5.152;2023-05-14T06:22:43;101977.47;;;13.01;85.35
51289;BME280;37372;52.294;5.152;2023-05-14T06:25:17;101988.25;;;13.03;85.67
51289;BME280;37372;52.294;5.152;2023-05-14T06:27:43;101974.13;;;12.86;85.31
51289;BME280;37372;52.294;5.152;2023-05-14T06:30:15;101972.56;;;13.04;85.39
51289;BME280;37372;52.294;5.152;2023-05-14T06:32:41;101974.84;;;13.13;86.40
51289;BME280;37372;52.294;5.152;2023-05-14T06:35:23;101978.47;;;13.07;84.89
51289;BME280;37372;52.294;5.152;2023-05-14T06:37:51;101983.75;;;13.22;85.68
51289;BME280;37372;52.294;5.152;2023-05-14T06:40:22;101980.50;;;13.32;85.19
51289;BME280;37372;52.294;5.152;2023-05-14T06:42:48;101978.81;;;13.31;84.44
51289;BME280;37372;52.294;5.152;2023-05-14T06:45:32;101978.34;;;13.65;84.12
51289;BME280;37372;52.294;5.152;2023-05-14T06:47:58;101973.97;;;13.82;82.70
51289;BME280;37372;52.294;5.152;2023-05-14T06:50:24;101984.72;;;13.91;82.45
51289;BME280;37372;52.294;5.152;2023-05-14T06:52:51;101981.53;;;13.69;82.35
51289;BME280;37372;52.294;5.152;2023-05-14T06:55:23;101982.59;;;13.68;81.68
51289;BME280;37372;52.294;5.152;2023-05-14T06:57:50;101972.53;;;13.80;81.24
51289;BME280;37372;52.294;5.152;2023-05-14T07:00:21;101985.63;;;13.85;82.45
51289;BME280;37372;52.294;5.152;2023-05-14T07:02:46;101977.28;;;13.98;82.40
51289;BME280;37372;52.294;5.152;2023-05-14T07:05:29;101974.34;;;13.93;81.18
51289;BME280;37372;52.294;5.152;2023-05-14T07:07:55;101979.38;;;13.96;80.71
51289;BME280;37372;52.294;5.152;2023-05-14T07:10:23;101982.22;;;13.89;82.17
51289;BME280;37372;52.294;5.152;2023-05-14T07:12:51;101980.28;;;14.15;81.67
51289;BME280;37372;52.294;5.152;2023-05-14T07:15:24;101979.06;;;14.29;80.58
51289;BME280;37372;52.294;5.152;2023-05-14T07:17:51;101980.84;;;14.42;80.33
51289;BME280;37372;52.294;5.152;2023-05-14T07:20:29;101979.44;;;14.14;81.15
51289;BME280;37372;52.294;5.152;2023-05-14T07:22:54;101982.44;;;14.13;80.61
51289;BME280;37372;52.294;5.152;2023-05-14T07:25:27;101984.66;;;14.22;81.15
51289;BME280;37372;52.294;5.152;2023-05-14T07:27:54;101984.72;;;14.16;82.12
51289;BME280;37372;52.294;5.152;2023-05-14T07:30:29;101978.13;;;13.98;80.87
51289;BME280;37372;52.294;5.152;2023-05-14T07:32:55;101988.84;;;13.81;82.07
51289;BME280;37372;52.294;5.152;2023-05-14T07:35:31;101985.38;;;13.93;81.85
51289;BME280;37372;52.294;5.152;2023-05-14T07:37:56;101985.81;;;13.90;82.49
51289;BME280;37372;52.294;5.152;2023-05-14T07:40:32;101981.19;;;13.83;81.82
51289;BME280;37372;52.294;5.152;2023-05-14T07:42:58;101984.19;;;14.07;82.19
51289;BME280;37372;52.294;5.152;2023-05-14T07:45:32;101988.25;;;14.04;81.89
51289;BME280;37372;52.294;5.152;2023-05-14T07:47:57;101982.53;;;14.24;81.95
51289;BME280;37372;52.294;5.152;2023-05-14T07:50:36;101977.47;;;14.21;81.76
51289;BME280;37372;52.294;5.152;2023-05-14T07:53:02;101974.88;;;14.45;80.55
51289;BME280;37372;52.294;5.152;2023-05-14T07:55:38;101972.16;;;14.63;80.49
51289;BME280;37372;52.294;5.152;2023-05-14T07:58:06;101973.59;;;14.84;78.87
51289;BME280;37372;52.294;5.152;2023-05-14T08:00:58;101980.59;;;14.68;79.90
51289;BME280;37372;52.294;5.152;2023-05-14T08:03:26;101973.38;;;14.49;80.54
51289;BME280;37372;52.294;5.152;2023-05-14T08:05:52;101971.94;;;14.65;80.93
51289;BME280;37372;52.294;5.152;2023-05-14T08:08:18;101971.84;;;14.71;80.40
51289;BME280;37372;52.294;5.152;2023-05-14T08:10:43;101968.81;;;15.09;79.41
51289;BME280;37372;52.294;5.152;2023-05-14T08:13:09;101969.94;;;15.20;78.29
51289;BME280;37372;52.294;5.152;2023-05-14T08:15:38;101969.13;;;15.31;77.07
51289;BME280;37372;52.294;5.152;2023-05-14T08:18:04;101966.94;;;15.22;76.24
51289;BME280;37372;52.294;5.152;2023-05-14T08:20:40;101968.56;;;15.11;75.86
51289;BME280;37372;52.294;5.152;2023-05-14T08:23:07;101963.00;;;14.99;76.66
51289;BME280;37372;52.294;5.152;2023-05-14T08:25:41;101971.53;;;14.98;79.00
51289;BME280;37372;52.294;5.152;2023-05-14T08:28:07;101965.06;;;15.04;77.32
51289;BME280;37372;52.294;5.152;2023-05-14T08:30:40;101967.72;;;15.10;78.37
51289;BME280;37372;52.294;5.152;2023-05-14T08:33:06;101970.50;;;15.10;77.32
51289;BME280;37372;52.294;5.152;2023-05-14T08:35:39;101967.78;;;15.22;77.19
51289;BME280;37372;52.294;5.152;2023-05-14T08:38:06;101964.38;;;15.08;78.26
51289;BME280;37372;52.294;5.152;2023-05-14T08:41:06;101970.16;;;15.18;76.97
51289;BME280;37372;52.294;5.152;2023-05-14T08:46:36;101966.41;;;15.13;77.60
51289;BME280;37372;52.294;5.152;2023-05-14T08:49:18;101970.00;;;15.02;77.44
51289;BME280;37372;52.294;5.152;2023-05-14T08:51:51;101957.09;;;14.96;77.11
51289;BME280;37372;52.294;5.152;2023-05-14T08:54:17;101956.16;;;15.02;78.42
51289;BME280;37372;52.294;5.152;2023-05-14T08:56:43;101960.47;;;14.98;79.06
51289;BME280;37372;52.294;5.152;2023-05-14T08:59:12;101953.25;;;14.97;80.52
51289;BME280;37372;52.294;5.152;2023-05-14T09:01:44;101947.00;;;14.71;78.77
51289;BME280;37372;52.294;5.152;2023-05-14T09:04:11;101943.66;;;14.81;78.70
51289;BME280;37372;52.294;5.152;2023-05-14T09:06:37;101950.34;;;14.92;79.42
51289;BME280;37372;52.294;5.152;2023-05-14T09:09:05;101948.47;;;15.04;78.47
51289;BME280;37372;52.294;5.152;2023-05-14T09:11:31;101941.03;;;15.04;78.90
51289;BME280;37372;52.294;5.152;2023-05-14T09:13:58;101946.97;;;15.20;79.10
51289;BME280;37372;52.294;5.152;2023-05-14T09:16:24;101936.41;;;15.16;78.26
51289;BME280;37372;52.294;5.152;2023-05-14T09:18:52;101944.28;;;15.01;78.83
51289;BME280;37372;52.294;5.152;2023-05-14T09:21:18;101948.88;;;15.07;78.10
51289;BME280;37372;52.294;5.152;2023-05-14T09:23:46;101942.19;;;14.97;79.18
51289;BME280;37372;52.294;5.152;2023-05-14T09:26:25;101940.31;;;14.79;79.44
51289;BME280;37372;52.294;5.152;2023-05-14T09:28:54;101942.91;;;14.92;78.88
51289;BME280;37372;52.294;5.152;2023-05-14T09:31:38;101944.59;;;15.23;80.04
51289;BME280;37372;52.294;5.152;2023-05-14T09:34:05;101940.81;;;15.48;77.73
51289;BME280;37372;52.294;5.152;2023-05-14T09:36:33;101930.69;;;15.72;77.62
51289;BME280;37372;52.294;5.152;2023-05-14T09:39:05;101920.03;;;15.57;75.09
51289;BME280;37372;52.294;5.152;2023-05-14T09:41:31;101922.50;;;15.77;77.64
51289;BME280;37372;52.294;5.152;2023-05-14T09:43:57;101919.72;;;15.77;77.28
51289;BME280;37372;52.294;5.152;2023-05-14T09:46:22;101919.88;;;15.93;75.70
51289;BME280;37372;52.294;5.152;2023-05-14T09:48:55;101917.09;;;15.82;75.62
51289;BME280;37372;52.294;5.152;2023-05-14T09:51:21;101916.00;;;15.94;75.54
51289;BME280;37372;52.294;5.152;2023-05-14T09:53:53;101923.97;;;15.91;75.29
51289;BME280;37372;52.294;5.152;2023-05-14T09:56:18;101918.16;;;16.16;74.49
51289;BME280;37372;52.294;5.152;2023-05-14T09:58:47;101918.78;;;16.18;76.67
51289;BME280;37372;52.294;5.152;2023-05-14T10:01:15;101912.22;;;16.47;75.69
51289;BME280;37372;52.294;5.152;2023-05-14T10:03:41;101915.41;;;16.68;73.65
51289;BME280;37372;52.294;5.152;2023-05-14T10:06:08;101914.00;;;16.53;75.43
51289;BME280;37372;52.294;5.152;2023-05-14T10:08:40;101908.63;;;16.87;73.24
51289;BME280;37372;52.294;5.152;2023-05-14T10:11:18;101904.19;;;16.86;73.88
51289;BME280;37372;52.294;5.152;2023-05-14T10:14:17;101909.69;;;16.58;75.19
51289;BME280;37372;52.294;5.152;2023-05-14T10:16:47;101906.50;;;16.66;73.77
51289;BME280;37372;52.294;5.152;2023-05-14T10:19:19;101906.47;;;16.49;73.76
51289;BME280;37372;52.294;5.152;2023-05-14T10:21:55;101908.19;;;16.67;72.88
51289;BME280;37372;52.294;5.152;2023-05-14T10:24:22;101910.13;;;16.78;72.38
51289;BME280;37372;52.294;5.152;2023-05-14T10:26:50;101905.53;;;16.32;72.66
51289;BME280;37372;52.294;5.152;2023-05-14T10:29:15;101909.28;;;16.66;75.83
51289;BME280;37372;52.294;5.152;2023-05-14T10:31:54;101899.44;;;16.58;72.18
51289;BME280;37372;52.294;5.152;2023-05-14T10:34:33;101902.94;;;16.53;73.44
51289;BME280;37372;52.294;5.152;2023-05-14T10:37:06;101892.63;;;16.37;74.11
51289;BME280;37372;52.294;5.152;2023-05-14T10:39:40;101903.44;;;16.50;74.16
51289;BME280;37372;52.294;5.152;2023-05-14T10:42:07;101897.38;;;16.77;73.26
51289;BME280;37372;52.294;5.152;2023-05-14T10:44:34;101887.97;;;16.78;73.73
51289;BME280;37372;52.294;5.152;2023-05-14T10:47:01;101888.50;;;16.92;72.84
51289;BME280;37372;52.294;5.152;2023-05-14T10:49:26;101891.47;;;16.73;73.05
51289;BME280;37372;52.294;5.152;2023-05-14T10:51:52;101887.47;;;16.81;70.39
51289;BME280;37372;52.294;5.152;2023-05-14T10:54:20;101893.38;;;16.73;73.06
51289;BME280;37372;52.294;5.152;2023-05-14T10:56:49;101889.19;;;16.59;71.06
51289;BME280;37372;52.294;5.152;2023-05-14T10:59:18;101882.25;;;16.85;72.44
51289;BME280;37372;52.294;5.152;2023-05-14T11:01:44;101884.50;;;16.59;71.85
51289;BME280;37372;52.294;5.152;2023-05-14T11:04:17;101876.75;;;16.73;72.31
51289;BME280;37372;52.294;5.152;2023-05-14T11:06:46;101885.06;;;16.61;73.09
51289;BME280;37372;52.294;5.152;2023-05-14T11:09:16;101881.97;;;16.58;73.94
51289;BME280;37372;52.294;5.152;2023-05-14T11:11:42;101878.09;;;16.18;74.82
51289;BME280;37372;52.294;5.152;2023-05-14T11:14:09;101867.97;;;16.24;73.24
51289;BME280;37372;52.294;5.152;2023-05-14T11:16:36;101867.34;;;16.34;75.17
51289;BME280;37372;52.294;5.152;2023-05-14T11:19:03;101867.19;;;16.40;73.59
51289;BME280;37372;52.294;5.152;2023-05-14T11:21:29;101868.84;;;16.53;73.54
51289;BME280;37372;52.294;5.152;2023-05-14T11:24:04;101862.38;;;16.36;73.31
51289;BME280;37372;52.294;5.152;2023-05-14T11:26:32;101862.38;;;16.47;74.62
51289;BME280;37372;52.294;5.152;2023-05-14T11:28:59;101855.09;;;16.70;75.61
51289;BME280;37372;52.294;5.152;2023-05-14T11:31:24;101852.50;;;16.80;73.39
51289;BME280;37372;52.294;5.152;2023-05-14T11:33:54;101852.09;;;16.71;72.25
51289;BME280;37372;52.294;5.152;2023-05-14T11:36:25;101853.72;;;16.84;73.74
51289;BME280;37372;52.294;5.152;2023-05-14T11:38:54;101852.19;;;16.76;72.98
51289;BME280;37372;52.294;5.152;2023-05-14T11:41:27;101844.72;;;16.77;72.15
51289;BME280;37372;52.294;5.152;2023-05-14T11:43:56;101838.91;;;16.78;72.89
51289;BME280;37372;52.294;5.152;2023-05-14T11:46:26;101834.16;;;16.62;72.05
51289;BME280;37372;52.294;5.152;2023-05-14T11:48:54;101831.94;;;16.76;72.24
51289;BME280;37372;52.294;5.152;2023-05-14T11:51:25;101838.31;;;17.22;71.67
51289;BME280;37372;52.294;5.152;2023-05-14T11:53:52;101836.88;;;16.74;72.03
51289;BME280;37372;52.294;5.152;2023-05-14T11:56:29;101839.22;;;17.11;68.99
51289;BME280;37372;52.294;5.152;2023-05-14T11:58:58;101826.72;;;17.25;70.03
51289;BME280;37372;52.294;5.152;2023-05-14T12:01:26;101832.09;;;17.15;72.59
51289;BME280;37372;52.294;5.152;2023-05-14T12:03:52;101829.09;;;17.33;69.78
51289;BME280;37372;52.294;5.152;2023-05-14T12:06:30;101821.28;;;17.47;70.77
51289;BME280;37372;52.294;5.152;2023-05-14T12:08:56;101827.56;;;17.42;70.47
51289;BME280;37372;52.294;5.152;2023-05-14T12:11:30;101820.00;;;17.54;69.44
51289;BME280;37372;52.294;5.152;2023-05-14T12:13:59;101821.19;;;17.42;69.10
51289;BME280;37372;52.294;5.152;2023-05-14T12:16:31;101816.38;;;17.37;71.35
51289;BME280;37372;52.294;5.152;2023-05-14T12:19:00;101822.28;;;17.07;71.13
51289;BME280;37372;52.294;5.152;2023-05-14T12:21:35;101820.66;;;17.11;71.37
51289;BME280;37372;52.294;5.152;2023-05-14T12:24:01;101825.19;;;17.17;70.24
51289;BME280;37372;52.294;5.152;2023-05-14T12:26:33;101809.31;;;17.29;69.17
51289;BME280;37372;52.294;5.152;2023-05-14T12:29:01;101814.28;;;17.61;68.86
51289;BME280;37372;52.294;5.152;2023-05-14T12:31:30;101820.09;;;17.59;71.09
51289;BME280;37372;52.294;5.152;2023-05-14T12:33:56;101805.09;;;17.77;68.11
51289;BME280;37372;52.294;5.152;2023-05-14T12:36:33;101815.94;;;17.62;66.17
51289;BME280;37372;52.294;5.152;2023-05-14T12:39:00;101806.16;;;17.93;64.52
51289;BME280;37372;52.294;5.152;2023-05-14T12:41:34;101800.78;;;17.70;66.82
51289;BME280;37372;52.294;5.152;2023-05-14T12:44:03;101799.59;;;17.99;66.42
51289;BME280;37372;52.294;5.152;2023-05-14T12:46:38;101806.69;;;18.12;65.05
51289;BME280;37372;52.294;5.152;2023-05-14T12:49:11;101803.41;;;18.37;64.47
51289;BME280;37372;52.294;5.152;2023-05-14T12:51:39;101800.97;;;18.67;64.65
51289;BME280;37372;52.294;5.152;2023-05-14T12:54:08;101800.75;;;18.03;66.54
51289;BME280;37372;52.294;5.152;2023-05-14T12:56:39;101799.66;;;18.26;65.36
51289;BME280;37372;52.294;5.152;2023-05-14T12:59:06;101796.59;;;18.28;64.19
51289;BME280;37372;52.294;5.152;2023-05-14T13:01:45;101796.91;;;18.75;65.78
51289;BME280;37372;52.294;5.152;2023-05-14T13:04:12;101793.38;;;18.85;65.44
51289;BME280;37372;52.294;5.152;2023-05-14T13:06:43;101793.66;;;19.15;63.52
51289;BME280;37372;52.294;5.152;2023-05-14T13:09:25;101793.25;;;18.70;62.56
51289;BME280;37372;52.294;5.152;2023-05-14T13:11:52;101789.72;;;18.79;63.52